createdAt,value
2017-12-23T00:01:18.219Z,7.78
2017-12-23T00:03:51.910Z,8.55
2017-12-23T00:06:26.594Z,7.15
2017-12-23T00:09:01.134Z,8.35
2017-12-23T00:11:35.955Z,7.97
2017-12-23T00:14:09.949Z,8.55
2017-12-23T00:16:44.537Z,9.00
2017-12-23T00:19:18.500Z,7.60
2017-12-23T00:21:52.416Z,7.90
2017-12-23T00:24:26.310Z,7.90
2017-12-23T00:27:00.810Z,8.30
2017-12-23T00:29:34.590Z,8.95
2017-12-23T00:32:09.493Z,8.38
2017-12-23T00:34:43.315Z,9.60
2017-12-23T00:37:17.153Z,8.45
2017-12-23T00:39:51.013Z,8.70
2017-12-23T00:42:24.709Z,8.77
2017-12-23T00:45:03.083Z,8.30
2017-12-23T00:47:36.903Z,9.43
2017-12-23T00:50:10.766Z,7.68
2017-12-23T00:52:45.315Z,7.95
2017-12-23T00:55:19.962Z,7.82
2017-12-23T00:57:53.684Z,6.90
2017-12-23T01:00:27.411Z,8.73
2017-12-23T01:03:01.225Z,7.22
2017-12-23T01:05:35.045Z,6.82
2017-12-23T01:08:08.838Z,6.35
2017-12-23T01:10:42.568Z,7.47
2017-12-23T01:13:17.621Z,7.30
2017-12-23T01:15:51.531Z,6.45
2017-12-23T01:18:26.320Z,6.78
2017-12-23T01:20:59.972Z,6.25
2017-12-23T01:23:33.829Z,5.00
2017-12-23T01:26:08.378Z,4.97
2017-12-23T01:28:42.271Z,5.35
2017-12-23T01:31:16.031Z,5.65
2017-12-23T01:33:49.825Z,5.87
2017-12-23T01:36:23.627Z,5.50
2017-12-23T01:38:57.766Z,5.47
2017-12-23T01:41:31.522Z,5.62
2017-12-23T01:44:05.350Z,4.25
2017-12-23T01:46:39.948Z,5.57
2017-12-23T01:49:14.816Z,4.85
2017-12-23T01:51:48.644Z,5.47
2017-12-23T01:54:22.511Z,3.95
2017-12-23T01:56:56.328Z,4.95
2017-12-23T01:59:30.075Z,5.65
2017-12-23T02:02:03.676Z,6.10
2017-12-23T02:04:38.280Z,5.72
2017-12-23T02:07:12.764Z,5.40
2017-12-23T02:09:46.556Z,4.57
2017-12-23T02:12:20.184Z,4.35
2017-12-23T02:14:54.830Z,4.50
2017-12-23T02:17:28.650Z,4.60
2017-12-23T02:20:02.564Z,5.03
2017-12-23T02:22:36.360Z,4.05
2017-12-23T02:25:10.220Z,4.87
2017-12-23T02:27:44.022Z,5.18
2017-12-23T02:30:18.599Z,4.97
2017-12-23T02:32:52.401Z,4.20
2017-12-23T02:35:26.475Z,4.72
2017-12-23T02:38:00.220Z,4.87
2017-12-23T02:40:34.162Z,5.65
2017-12-23T02:43:07.957Z,4.65
2017-12-23T02:45:41.926Z,4.97
2017-12-23T02:48:15.740Z,4.55
2017-12-23T02:50:50.377Z,5.10
2017-12-23T02:53:24.972Z,4.80
2017-12-23T02:55:59.531Z,5.05
2017-12-23T02:58:33.329Z,5.60
2017-12-23T03:01:07.978Z,5.45
2017-12-23T03:03:41.770Z,5.15
2017-12-23T03:06:15.608Z,5.00
2017-12-23T03:08:49.272Z,4.95
2017-12-23T03:11:23.089Z,5.25
2017-12-23T03:13:57.679Z,5.87
2017-12-23T03:16:31.726Z,4.65
2017-12-23T03:19:06.309Z,4.57
2017-12-23T03:21:39.985Z,4.30
2017-12-23T03:24:13.766Z,5.30
2017-12-23T03:26:47.440Z,4.75
2017-12-23T03:29:21.839Z,4.60
2017-12-23T03:31:55.604Z,4.85
2017-12-23T03:34:29.349Z,5.47
2017-12-23T03:37:03.508Z,5.45
2017-12-23T03:39:37.197Z,5.35
2017-12-23T03:42:11.229Z,4.78
2017-12-23T03:44:44.912Z,4.32
2017-12-23T03:47:20.132Z,5.25
2017-12-23T03:49:54.635Z,5.15
2017-12-23T03:52:29.192Z,5.57
2017-12-23T03:55:03.045Z,5.00
2017-12-23T03:57:36.908Z,4.28
2017-12-23T04:00:10.621Z,4.62
2017-12-23T04:02:45.225Z,4.30
2017-12-23T04:05:19.821Z,4.60
2017-12-23T04:07:54.292Z,5.03
2017-12-23T04:10:28.052Z,5.35
2017-12-23T04:13:01.833Z,4.70
2017-12-23T04:15:36.387Z,4.85
2017-12-23T04:18:10.084Z,4.68
2017-12-23T04:20:43.881Z,4.65
2017-12-23T04:23:17.773Z,5.20
2017-12-23T04:25:51.520Z,5.32
2017-12-23T04:28:25.654Z,4.53
2017-12-23T04:30:59.434Z,4.53
2017-12-23T04:33:33.293Z,4.75
2017-12-23T04:36:07.268Z,6.07
2017-12-23T04:38:41.183Z,5.85
2017-12-23T04:41:14.932Z,5.18
2017-12-23T04:43:49.508Z,6.15
2017-12-23T04:46:23.110Z,5.32
2017-12-23T04:48:56.820Z,5.75
2017-12-23T04:51:31.310Z,5.78
2017-12-23T04:54:05.460Z,6.20
2017-12-23T04:56:39.932Z,6.30
2017-12-23T04:59:14.716Z,5.80
2017-12-23T05:01:49.298Z,6.97
2017-12-23T05:04:23.035Z,6.28
2017-12-23T05:06:57.540Z,5.95
2017-12-23T05:09:31.960Z,6.18
2017-12-23T05:12:05.762Z,6.65
2017-12-23T05:14:40.603Z,6.95
2017-12-23T05:17:14.377Z,7.53
2017-12-23T05:19:48.908Z,6.97
2017-12-23T05:22:22.582Z,8.25
2017-12-23T05:24:57.135Z,7.45
2017-12-23T05:27:30.942Z,6.90
2017-12-23T05:30:05.463Z,6.87
2017-12-23T05:32:39.276Z,7.57
2017-12-23T05:35:15.122Z,7.50
2017-12-23T05:37:48.794Z,7.05
2017-12-23T05:40:22.664Z,7.85
2017-12-23T05:42:56.537Z,7.70
2017-12-23T05:45:31.205Z,6.80
2017-12-23T05:48:05.056Z,7.30
2017-12-23T05:50:39.716Z,7.12
2017-12-23T05:53:13.466Z,7.62
2017-12-23T05:55:47.370Z,8.05
2017-12-23T05:58:21.910Z,6.47
2017-12-23T06:00:55.832Z,6.97
2017-12-23T06:03:30.455Z,7.07
2017-12-23T06:06:04.220Z,6.68
2017-12-23T06:08:38.007Z,6.15
2017-12-23T06:11:12.296Z,6.82
2017-12-23T06:13:45.982Z,5.93
2017-12-23T06:16:20.748Z,6.68
2017-12-23T06:18:54.413Z,6.90
2017-12-23T06:21:28.854Z,7.45
2017-12-23T06:24:02.713Z,6.05
2017-12-23T06:26:36.401Z,6.53
2017-12-23T06:29:10.181Z,6.07
2017-12-23T06:31:44.844Z,6.45
2017-12-23T06:34:18.529Z,7.20
2017-12-23T06:36:52.533Z,6.07
2017-12-23T06:39:26.348Z,5.95
2017-12-23T06:42:01.162Z,6.35
2017-12-23T06:44:34.996Z,6.07
2017-12-23T06:47:09.476Z,6.65
2017-12-23T06:49:43.286Z,6.72
2017-12-23T06:52:17.044Z,7.12
2017-12-23T06:54:51.588Z,7.80
2017-12-23T06:57:25.645Z,6.93
2017-12-23T06:59:59.296Z,6.70
2017-12-23T07:02:33.160Z,6.60
2017-12-23T07:05:06.972Z,6.50
2017-12-23T07:07:41.454Z,6.82
2017-12-23T07:10:15.228Z,7.15
2017-12-23T07:12:48.939Z,5.87
2017-12-23T07:15:23.488Z,6.32
2017-12-23T07:17:57.305Z,6.25
2017-12-23T07:20:31.104Z,6.03
2017-12-23T07:23:05.365Z,5.80
2017-12-23T07:25:39.200Z,6.15
2017-12-23T07:28:12.984Z,5.32
2017-12-23T07:30:47.432Z,5.25
2017-12-23T07:33:21.125Z,5.00
2017-12-23T07:35:54.897Z,5.30
2017-12-23T07:38:28.752Z,5.62
2017-12-23T07:41:02.808Z,5.12
2017-12-23T07:43:36.452Z,5.20
2017-12-23T07:46:11.169Z,5.25
2017-12-23T07:48:46.244Z,4.80
2017-12-23T07:51:20.775Z,4.60
2017-12-23T07:53:55.383Z,5.50
2017-12-23T07:56:29.324Z,6.70
2017-12-23T07:59:03.436Z,4.85
2017-12-23T08:01:37.230Z,5.30
2017-12-23T08:04:11.098Z,4.57
2017-12-23T08:06:44.917Z,4.93
2017-12-23T08:09:18.701Z,4.85
2017-12-23T08:11:52.748Z,5.57
2017-12-23T08:14:26.597Z,5.40
2017-12-23T08:17:00.427Z,5.87
2017-12-23T08:19:34.472Z,5.07
2017-12-23T08:22:08.322Z,5.72
2017-12-23T08:24:42.010Z,5.60
2017-12-23T08:27:15.833Z,5.87
2017-12-23T08:29:49.592Z,5.05
2017-12-23T08:32:23.229Z,5.43
2017-12-23T08:34:57.016Z,5.95
2017-12-23T08:37:31.521Z,5.35
2017-12-23T08:40:06.216Z,4.55
2017-12-23T08:42:40.090Z,4.87
2017-12-23T08:45:13.929Z,8.52
2017-12-23T08:47:47.754Z,5.37
2017-12-23T08:50:21.744Z,5.10
2017-12-23T08:52:55.412Z,5.43
2017-12-23T08:55:29.438Z,5.60
2017-12-23T08:58:03.120Z,6.18
2017-12-23T09:00:37.042Z,5.50
2017-12-23T09:03:11.653Z,5.43
2017-12-23T09:05:46.188Z,7.12
2017-12-23T09:08:20.684Z,8.00
2017-12-23T09:10:54.517Z,6.68
2017-12-23T09:13:28.137Z,7.50
2017-12-23T09:16:02.748Z,7.00
2017-12-23T09:18:37.345Z,5.30
2017-12-23T09:21:11.249Z,6.82
2017-12-23T09:23:45.479Z,6.70
2017-12-23T09:26:19.676Z,13.07
2017-12-23T09:28:53.298Z,5.90
2017-12-23T09:31:27.223Z,5.87
2017-12-23T09:34:00.988Z,5.78
2017-12-23T09:36:34.709Z,5.22
2017-12-23T09:39:08.514Z,5.43
2017-12-23T09:41:42.376Z,5.43
2017-12-23T09:44:16.018Z,5.40
2017-12-23T09:46:50.512Z,5.18
2017-12-23T09:49:24.979Z,6.12
2017-12-23T09:51:58.804Z,6.40
2017-12-23T09:54:33.348Z,5.80
2017-12-23T09:57:07.235Z,6.18
2017-12-23T09:59:41.038Z,5.45
2017-12-23T10:02:14.804Z,5.60
2017-12-23T10:04:49.378Z,4.93
2017-12-23T10:07:23.919Z,6.25
2017-12-23T10:09:57.671Z,4.80
2017-12-23T10:12:32.203Z,5.70
2017-12-23T10:15:06.204Z,6.15
2017-12-23T10:17:40.029Z,6.12
2017-12-23T10:20:13.817Z,6.35
2017-12-23T10:22:47.709Z,5.20
2017-12-23T10:25:21.496Z,5.47
2017-12-23T10:27:55.300Z,5.75
2017-12-23T10:30:28.980Z,6.80
2017-12-23T10:33:02.805Z,5.90
2017-12-23T10:35:36.740Z,7.28
2017-12-23T10:38:10.459Z,5.28
2017-12-23T10:40:44.329Z,6.28
2017-12-23T10:43:18.168Z,5.50
2017-12-23T10:45:52.103Z,4.40
2017-12-23T10:48:25.854Z,5.47
2017-12-23T10:50:59.632Z,5.25
2017-12-23T10:53:33.489Z,5.78
2017-12-23T10:56:07.314Z,4.07
2017-12-23T10:58:41.357Z,6.60
2017-12-23T11:01:15.874Z,8.77
2017-12-23T11:03:49.563Z,7.40
2017-12-23T11:06:23.414Z,4.80
2017-12-23T11:08:57.216Z,4.53
2017-12-23T11:11:31.014Z,5.55
2017-12-23T11:14:04.816Z,5.53
2017-12-23T11:16:38.581Z,7.00
2017-12-23T11:19:14.129Z,6.70
2017-12-23T11:21:47.793Z,4.45
2017-12-23T11:24:22.363Z,5.00
2017-12-23T11:26:56.292Z,4.40
2017-12-23T11:29:30.766Z,4.20
2017-12-23T11:32:05.312Z,4.87
2017-12-23T11:34:39.860Z,4.32
2017-12-23T11:37:13.733Z,4.05
2017-12-23T11:39:47.417Z,4.40
2017-12-23T11:42:21.176Z,4.25
2017-12-23T11:44:54.849Z,5.50
2017-12-23T11:47:29.417Z,4.53
2017-12-23T11:50:03.164Z,4.60
2017-12-23T11:52:36.984Z,4.50
2017-12-23T11:55:10.704Z,4.78
2017-12-23T11:57:44.503Z,3.70
2017-12-23T12:00:19.008Z,4.90
2017-12-23T12:02:52.763Z,4.85
2017-12-23T12:05:27.350Z,4.70
2017-12-23T12:08:01.182Z,4.10
2017-12-23T12:10:35.005Z,3.55
2017-12-23T12:13:09.001Z,4.62
2017-12-23T12:15:42.744Z,4.95
2017-12-23T12:18:16.659Z,5.28
2017-12-23T12:20:51.226Z,4.87
2017-12-23T12:23:25.042Z,3.75
2017-12-23T12:25:58.784Z,4.15
2017-12-23T12:28:32.418Z,4.55
2017-12-23T12:31:06.957Z,3.70
2017-12-23T12:33:40.810Z,3.53
2017-12-23T12:36:15.322Z,4.00
2017-12-23T12:38:49.184Z,4.75
2017-12-23T12:41:23.780Z,4.15
2017-12-23T12:43:58.453Z,4.30
2017-12-23T12:46:32.949Z,3.85
2017-12-23T12:49:06.821Z,4.57
2017-12-23T12:51:40.532Z,3.28
2017-12-23T12:54:14.427Z,4.07
2017-12-23T12:56:48.221Z,3.20
2017-12-23T12:59:23.660Z,2.58
2017-12-23T13:01:57.526Z,2.97
2017-12-23T13:04:32.124Z,3.40
2017-12-23T13:07:06.035Z,2.95
2017-12-23T13:09:39.892Z,3.05
2017-12-23T13:12:13.769Z,3.45
2017-12-23T13:14:47.828Z,5.75
2017-12-23T13:17:21.838Z,3.15
2017-12-23T13:19:55.846Z,4.20
2017-12-23T13:22:29.666Z,3.90
2017-12-23T13:25:03.680Z,2.75
2017-12-23T13:27:37.541Z,3.00
2017-12-23T13:30:11.473Z,2.62
2017-12-23T13:32:45.252Z,2.50
2017-12-23T13:35:19.888Z,3.12
2017-12-23T13:37:53.820Z,4.60
2017-12-23T13:40:28.433Z,2.80
2017-12-23T13:43:02.185Z,2.78
2017-12-23T13:45:35.945Z,2.85
2017-12-23T13:48:09.934Z,2.50
2017-12-23T13:50:43.844Z,2.60
2017-12-23T13:53:18.340Z,2.92
2017-12-23T13:55:52.900Z,3.05
2017-12-23T13:58:27.487Z,2.80
2017-12-23T14:01:01.260Z,2.15
2017-12-23T14:03:35.092Z,2.00
2017-12-23T14:06:09.652Z,2.25
2017-12-23T14:08:44.145Z,2.40
2017-12-23T14:11:17.976Z,2.28
2017-12-23T14:13:52.635Z,2.28
2017-12-23T14:16:27.152Z,1.90
2017-12-23T14:19:01.757Z,1.70
2017-12-23T14:21:35.644Z,3.05
2017-12-23T14:24:09.462Z,2.45
2017-12-23T14:26:43.361Z,1.80
2017-12-23T14:29:17.072Z,3.17
2017-12-23T14:31:50.945Z,2.00
2017-12-23T14:34:24.913Z,2.00
2017-12-23T14:36:58.642Z,1.80
2017-12-23T14:39:32.420Z,1.70
2017-12-23T14:42:06.228Z,4.10
2017-12-23T14:44:40.002Z,3.30
2017-12-23T14:47:13.737Z,2.37
2017-12-23T14:49:48.357Z,2.85
2017-12-23T14:52:22.076Z,3.50
2017-12-23T14:54:57.129Z,2.70
2017-12-23T14:57:30.977Z,3.35
2017-12-23T15:00:05.525Z,3.58
2017-12-23T15:02:41.264Z,4.10
2017-12-23T15:05:15.842Z,2.80
2017-12-23T15:07:49.604Z,2.47
2017-12-23T15:10:23.405Z,2.83
2017-12-23T15:12:57.434Z,3.70
2017-12-23T15:15:32.188Z,2.70
2017-12-23T15:18:05.842Z,3.10
2017-12-23T15:20:39.736Z,3.40
2017-12-23T15:23:16.036Z,3.58
2017-12-23T15:25:49.785Z,4.85
2017-12-23T15:28:23.422Z,3.00
2017-12-23T15:30:57.959Z,3.75
2017-12-23T15:33:31.620Z,3.55
2017-12-23T15:36:06.277Z,2.85
2017-12-23T15:38:41.289Z,3.30
2017-12-23T15:41:15.300Z,1.98
2017-12-23T15:43:48.978Z,3.00
2017-12-23T15:46:23.115Z,3.58
2017-12-23T15:48:56.880Z,2.78
2017-12-23T15:51:31.510Z,2.83
2017-12-23T15:54:05.545Z,3.50
2017-12-23T15:56:39.349Z,3.40
2017-12-23T15:59:14.051Z,2.30
2017-12-23T16:01:48.660Z,3.28
2017-12-23T16:04:22.299Z,3.10
2017-12-23T16:06:56.895Z,2.95
2017-12-23T16:09:30.649Z,3.40
2017-12-23T16:12:04.639Z,2.62
2017-12-23T16:14:39.124Z,1.70
2017-12-23T16:17:12.906Z,2.00
2017-12-23T16:19:46.686Z,2.00
2017-12-23T16:22:20.402Z,2.30
2017-12-23T16:24:54.140Z,2.40
2017-12-23T16:27:29.297Z,2.20
2017-12-23T16:30:03.868Z,2.12
2017-12-23T16:32:37.656Z,2.30
2017-12-23T16:35:11.458Z,3.87
2017-12-23T16:37:45.169Z,5.00
2017-12-23T16:40:19.744Z,6.18
2017-12-23T16:42:54.415Z,2.40
2017-12-23T16:45:29.068Z,3.20
2017-12-23T16:48:02.855Z,4.75
2017-12-23T16:50:36.626Z,2.55
2017-12-23T16:53:10.447Z,2.30
2017-12-23T16:55:44.305Z,2.72
2017-12-23T16:58:18.183Z,2.50
2017-12-23T17:00:52.107Z,3.37
2017-12-23T17:03:25.898Z,2.70
2017-12-23T17:05:59.788Z,2.60
2017-12-23T17:08:33.565Z,1.75
2017-12-23T17:11:07.292Z,2.85
2017-12-23T17:13:41.948Z,2.35
2017-12-23T17:16:15.738Z,2.53
2017-12-23T17:18:49.501Z,3.75
2017-12-23T17:21:23.420Z,2.72
2017-12-23T17:23:57.196Z,2.30
2017-12-23T17:26:31.030Z,3.00
2017-12-23T17:29:16.681Z,2.70
2017-12-23T17:31:50.713Z,4.10
2017-12-23T17:34:24.571Z,2.20
2017-12-23T17:36:58.622Z,3.20
2017-12-23T17:39:32.309Z,3.15
2017-12-23T17:42:06.264Z,3.87
2017-12-23T17:44:40.780Z,3.60
2017-12-23T17:47:14.536Z,2.40
2017-12-23T17:49:48.180Z,2.65
2017-12-23T17:52:22.844Z,2.30
2017-12-23T17:54:56.578Z,3.15
2017-12-23T17:57:30.429Z,2.72
2017-12-23T18:00:05.168Z,2.25
2017-12-23T18:02:39.680Z,4.40
2017-12-23T18:05:13.509Z,3.40
2017-12-23T18:07:47.290Z,2.72
2017-12-23T18:10:21.980Z,2.75
2017-12-23T18:12:55.935Z,3.47
2017-12-23T18:15:29.734Z,3.80
2017-12-23T18:18:03.594Z,3.30
2017-12-23T18:20:37.326Z,3.17
2017-12-23T18:23:11.204Z,2.70
2017-12-23T18:25:45.424Z,2.70
2017-12-23T18:28:19.537Z,3.92
2017-12-23T18:30:53.472Z,4.78
2017-12-23T18:33:27.228Z,3.15
2017-12-23T18:36:00.859Z,3.35
2017-12-23T18:38:34.656Z,3.45
2017-12-23T18:41:08.568Z,6.93
2017-12-23T18:43:43.117Z,4.80
2017-12-23T18:46:17.613Z,4.30
2017-12-23T18:48:51.396Z,4.12
2017-12-23T18:51:25.148Z,3.42
2017-12-23T18:53:58.908Z,2.87
2017-12-23T18:56:32.660Z,4.03
2017-12-23T18:59:06.555Z,4.20
2017-12-23T19:01:41.072Z,4.65
2017-12-23T19:04:14.873Z,4.85
2017-12-23T19:06:48.584Z,9.75
2017-12-23T19:09:23.124Z,5.62
2017-12-23T19:11:56.956Z,3.80
2017-12-23T19:14:30.903Z,4.93
2017-12-23T19:17:04.685Z,3.12
2017-12-23T19:19:39.298Z,3.90
2017-12-23T19:22:13.212Z,4.18
2017-12-23T19:24:47.859Z,3.58
2017-12-23T19:27:21.606Z,3.78
2017-12-23T19:29:55.281Z,3.83
2017-12-23T19:32:29.069Z,3.33
2017-12-23T19:35:02.814Z,3.50
2017-12-23T19:37:37.478Z,4.10
2017-12-23T19:40:11.221Z,7.95
2017-12-23T19:42:45.120Z,6.93
2017-12-23T19:45:19.144Z,4.40
2017-12-23T19:47:52.932Z,4.30
2017-12-23T19:50:26.782Z,5.20
2017-12-23T19:53:00.611Z,4.65
2017-12-23T19:55:34.479Z,7.15
2017-12-23T19:58:08.203Z,5.70
2017-12-23T20:00:42.665Z,6.90
2017-12-23T20:03:16.449Z,3.45
2017-12-23T20:05:51.368Z,4.05
2017-12-23T20:08:25.772Z,4.18
2017-12-23T20:11:00.364Z,4.35
2017-12-23T20:13:34.581Z,3.85
2017-12-23T20:16:08.360Z,3.30
2017-12-23T20:18:42.228Z,3.97
2017-12-23T20:21:15.990Z,3.85
2017-12-23T20:23:49.787Z,4.57
2017-12-23T20:26:24.362Z,5.05
2017-12-23T20:28:58.304Z,3.72
2017-12-23T20:31:32.108Z,4.50
2017-12-23T20:34:06.643Z,4.57
2017-12-23T20:36:40.699Z,4.90
2017-12-23T20:39:14.522Z,4.45
2017-12-23T20:41:48.400Z,4.68
2017-12-23T20:44:22.192Z,3.70
2017-12-23T20:46:56.119Z,5.50
2017-12-23T20:49:29.943Z,4.45
2017-12-23T20:52:03.741Z,6.25
2017-12-23T20:54:38.336Z,4.60
2017-12-23T20:57:12.174Z,5.55
2017-12-23T20:59:46.085Z,5.80
2017-12-23T21:02:19.999Z,5.60
2017-12-23T21:04:54.621Z,5.45
2017-12-23T21:07:28.480Z,4.15
2017-12-23T21:10:02.311Z,4.18
2017-12-23T21:12:36.200Z,4.12
2017-12-23T21:15:10.975Z,3.80
2017-12-23T21:17:44.796Z,3.50
2017-12-23T21:20:18.531Z,3.05
2017-12-23T21:22:52.347Z,3.83
2017-12-23T21:25:26.263Z,3.42
2017-12-23T21:28:00.128Z,4.72
2017-12-23T21:30:34.728Z,4.47
2017-12-23T21:33:08.511Z,4.07
2017-12-23T21:35:42.324Z,2.60
2017-12-23T21:38:16.074Z,3.83
2017-12-23T21:40:50.231Z,2.90
2017-12-23T21:43:23.981Z,3.15
2017-12-23T21:45:57.723Z,2.62
2017-12-23T21:48:31.776Z,2.47
2017-12-23T21:51:06.240Z,2.47
2017-12-23T21:53:40.004Z,3.62
2017-12-23T21:56:13.788Z,2.40
2017-12-23T21:58:47.657Z,2.60
2017-12-23T22:01:22.382Z,2.10
2017-12-23T22:03:56.984Z,2.10
2017-12-23T22:06:30.904Z,2.10
2017-12-23T22:09:04.705Z,3.05
2017-12-23T22:11:38.533Z,2.37
2017-12-23T22:14:13.200Z,2.30
2017-12-23T22:16:46.989Z,2.87
2017-12-23T22:19:21.590Z,2.45
2017-12-23T22:21:55.234Z,2.85
2017-12-23T22:24:29.354Z,2.10
2017-12-23T22:27:03.264Z,2.47
2017-12-23T22:29:37.239Z,2.15
2017-12-23T22:32:12.088Z,2.47
2017-12-23T22:34:45.978Z,1.95
2017-12-23T22:37:20.585Z,2.15
2017-12-23T22:39:54.412Z,2.33
2017-12-23T22:42:34.318Z,1.95
2017-12-23T22:45:08.138Z,2.35
2017-12-23T22:47:41.794Z,2.00
2017-12-23T22:50:15.868Z,2.10
2017-12-23T22:52:50.429Z,2.40
2017-12-23T22:55:24.427Z,2.08
2017-12-23T22:57:58.115Z,1.92
2017-12-23T23:00:32.787Z,2.25
2017-12-23T23:03:06.706Z,2.45
2017-12-23T23:05:41.270Z,2.35
2017-12-23T23:08:15.022Z,2.60
2017-12-23T23:10:48.958Z,2.50
2017-12-23T23:13:23.542Z,2.95
2017-12-23T23:15:57.479Z,2.55
2017-12-23T23:18:31.197Z,2.97
2017-12-23T23:21:05.823Z,2.20
2017-12-23T23:23:39.719Z,2.87
2017-12-23T23:26:13.884Z,2.42
2017-12-23T23:28:48.822Z,2.47
2017-12-23T23:31:22.839Z,1.90
2017-12-23T23:33:57.451Z,2.60
2017-12-23T23:36:31.300Z,2.40
2017-12-23T23:39:05.177Z,2.50
2017-12-23T23:41:38.900Z,2.40
2017-12-23T23:44:12.836Z,1.95
2017-12-23T23:46:46.651Z,3.28
2017-12-23T23:49:20.387Z,2.03
2017-12-23T23:51:54.166Z,2.00
2017-12-23T23:54:27.894Z,2.05
2017-12-23T23:57:01.620Z,2.58
2017-12-23T23:59:35.402Z,2.50
